sensor_id;sensor_type;location;lat;lon;timestamp;temperature;humidity
20463;DHT22;10390;53.566;9.980;2022-11-20T00:01:30;22.60;1.00
20463;DHT22;10390;53.566;9.980;2022-11-20T00:03:57;22.60;1.00
20463;DHT22;10390;53.566;9.980;2022-11-20T00:06:23;22.60;1.00
20463;DHT22;10390;53.566;9.980;2022-11-20T00:08:51;22.50;1.00
20463;DHT22;10390;53.566;9.980;2022-11-20T00:11:19;22.50;1.00
20463;DHT22;10390;53.566;9.980;2022-11-20T00:13:48;22.40;1.00
20463;DHT22;10390;53.566;9.980;2022-11-20T00:16:19;22.40;1.00
20463;DHT22;10390;53.566;9.980;2022-11-20T00:18:46;22.40;1.00
20463;DHT22;10390;53.566;9.980;2022-11-20T00:21:17;22.30;1.00
20463;DHT22;10390;53.566;9.980;2022-11-20T00:23:44;22.30;1.00
20463;DHT22;10390;53.566;9.980;2022-11-20T00:26:13;22.20;1.00
20463;DHT22;10390;53.566;9.980;2022-11-20T00:28:42;22.20;1.00
20463;DHT22;10390;53.566;9.980;2022-11-20T00:31:13;22.20;1.00
20463;DHT22;10390;53.566;9.980;2022-11-20T00:33:41;22.20;1.00
20463;DHT22;10390;53.566;9.980;2022-11-20T00:36:10;22.20;1.00
20463;DHT22;10390;53.566;9.980;2022-11-20T00:38:40;22.10;1.00
20463;DHT22;10390;53.566;9.980;2022-11-20T00:41:10;22.10;1.00
20463;DHT22;10390;53.566;9.980;2022-11-20T00:43:38;22.10;1.00
20463;DHT22;10390;53.566;9.980;2022-11-20T00:46:09;22.10;1.00
20463;DHT22;10390;53.566;9.980;2022-11-20T00:48:35;22.00;1.00
20463;DHT22;10390;53.566;9.980;2022-11-20T00:51:02;22.10;1.00
20463;DHT22;10390;53.566;9.980;2022-11-20T00:53:27;22.00;1.00
20463;DHT22;10390;53.566;9.980;2022-11-20T00:56:07;22.00;1.00
20463;DHT22;10390;53.566;9.980;2022-11-20T00:58:37;21.90;1.00
20463;DHT22;10390;53.566;9.980;2022-11-20T01:01:05;21.90;1.00
20463;DHT22;10390;53.566;9.980;2022-11-20T01:03:33;21.90;1.00
20463;DHT22;10390;53.566;9.980;2022-11-20T01:06:05;21.90;1.00
20463;DHT22;10390;53.566;9.980;2022-11-20T01:08:35;21.90;1.00
20463;DHT22;10390;53.566;9.980;2022-11-20T01:11:15;21.80;1.00
20463;DHT22;10390;53.566;9.980;2022-11-20T01:13:43;21.80;1.00
20463;DHT22;10390;53.566;9.980;2022-11-20T01:16:33;21.80;1.00
20463;DHT22;10390;53.566;9.980;2022-11-20T01:19:00;21.80;1.00
20463;DHT22;10390;53.566;9.980;2022-11-20T01:21:31;21.70;1.00
20463;DHT22;10390;53.566;9.980;2022-11-20T01:24:00;21.70;1.00
20463;DHT22;10390;53.566;9.980;2022-11-20T01:26:29;21.70;1.00
20463;DHT22;10390;53.566;9.980;2022-11-20T01:28:57;21.70;1.00
20463;DHT22;10390;53.566;9.980;2022-11-20T01:31:34;21.70;1.00
20463;DHT22;10390;53.566;9.980;2022-11-20T01:34:03;21.70;1.00
20463;DHT22;10390;53.566;9.980;2022-11-20T01:36:31;21.60;1.00
20463;DHT22;10390;53.566;9.980;2022-11-20T01:39:01;21.60;1.00
20463;DHT22;10390;53.566;9.980;2022-11-20T01:41:30;21.60;1.00
20463;DHT22;10390;53.566;9.980;2022-11-20T01:44:18;21.60;1.00
20463;DHT22;10390;53.566;9.980;2022-11-20T01:47:01;21.60;1.00
20463;DHT22;10390;53.566;9.980;2022-11-20T01:49:50;21.50;1.00
20463;DHT22;10390;53.566;9.980;2022-11-20T01:52:32;21.50;1.00
20463;DHT22;10390;53.566;9.980;2022-11-20T01:55:10;21.50;1.00
20463;DHT22;10390;53.566;9.980;2022-11-20T01:57:40;21.50;1.00
20463;DHT22;10390;53.566;9.980;2022-11-20T02:00:09;21.50;1.00
20463;DHT22;10390;53.566;9.980;2022-11-20T02:02:39;21.50;1.00
20463;DHT22;10390;53.566;9.980;2022-11-20T02:05:35;21.50;1.00
20463;DHT22;10390;53.566;9.980;2022-11-20T02:08:07;21.40;1.00
20463;DHT22;10390;53.566;9.980;2022-11-20T02:10:33;21.40;1.00
20463;DHT22;10390;53.566;9.980;2022-11-20T02:12:59;21.40;1.00
20463;DHT22;10390;53.566;9.980;2022-11-20T02:15:45;21.40;1.00
20463;DHT22;10390;53.566;9.980;2022-11-20T02:18:13;21.40;1.00
20463;DHT22;10390;53.566;9.980;2022-11-20T02:20:42;21.40;1.00
20463;DHT22;10390;53.566;9.980;2022-11-20T02:23:20;21.40;1.00
20463;DHT22;10390;53.566;9.980;2022-11-20T02:26:00;21.30;1.00
20463;DHT22;10390;53.566;9.980;2022-11-20T02:28:28;21.30;1.00
20463;DHT22;10390;53.566;9.980;2022-11-20T02:30:53;21.30;1.00
20463;DHT22;10390;53.566;9.980;2022-11-20T02:33:19;21.30;1.00
20463;DHT22;10390;53.566;9.980;2022-11-20T02:35:46;21.30;1.00
20463;DHT22;10390;53.566;9.980;2022-11-20T02:38:13;21.30;1.00
20463;DHT22;10390;53.566;9.980;2022-11-20T02:40:40;21.30;1.00
20463;DHT22;10390;53.566;9.980;2022-11-20T02:43:06;21.30;1.00
20463;DHT22;10390;53.566;9.980;2022-11-20T02:45:32;21.30;1.00
20463;DHT22;10390;53.566;9.980;2022-11-20T02:47:57;21.30;1.00
20463;DHT22;10390;53.566;9.980;2022-11-20T02:50:23;21.20;1.00
20463;DHT22;10390;53.566;9.980;2022-11-20T02:52:49;21.20;1.00
20463;DHT22;10390;53.566;9.980;2022-11-20T02:55:15;21.20;1.00
20463;DHT22;10390;53.566;9.980;2022-11-20T02:57:40;21.20;1.00
20463;DHT22;10390;53.566;9.980;2022-11-20T03:00:07;21.20;1.00
20463;DHT22;10390;53.566;9.980;2022-11-20T03:02:33;21.20;1.00
20463;DHT22;10390;53.566;9.980;2022-11-20T03:04:59;21.20;1.00
20463;DHT22;10390;53.566;9.980;2022-11-20T03:07:25;21.20;1.00
20463;DHT22;10390;53.566;9.980;2022-11-20T03:09:51;21.10;1.00
20463;DHT22;10390;53.566;9.980;2022-11-20T03:12:17;21.10;1.00
20463;DHT22;10390;53.566;9.980;2022-11-20T03:14:42;21.10;1.00
20463;DHT22;10390;53.566;9.980;2022-11-20T03:17:08;21.10;1.00
20463;DHT22;10390;53.566;9.980;2022-11-20T03:19:34;21.10;1.00
20463;DHT22;10390;53.566;9.980;2022-11-20T03:22:00;21.10;1.00
20463;DHT22;10390;53.566;9.980;2022-11-20T03:24:26;21.10;1.00
20463;DHT22;10390;53.566;9.980;2022-11-20T03:26:52;21.10;1.00
20463;DHT22;10390;53.566;9.980;2022-11-20T03:29:18;21.10;1.00
20463;DHT22;10390;53.566;9.980;2022-11-20T03:31:44;21.00;1.00
20463;DHT22;10390;53.566;9.980;2022-11-20T03:34:11;21.10;1.00
20463;DHT22;10390;53.566;9.980;2022-11-20T03:36:41;21.10;1.00
20463;DHT22;10390;53.566;9.980;2022-11-20T03:39:08;21.10;1.00
20463;DHT22;10390;53.566;9.980;2022-11-20T03:41:39;21.10;1.00
20463;DHT22;10390;53.566;9.980;2022-11-20T03:44:07;21.00;1.00
20463;DHT22;10390;53.566;9.980;2022-11-20T03:46:35;21.00;1.00
20463;DHT22;10390;53.566;9.980;2022-11-20T03:49:01;21.00;1.00
20463;DHT22;10390;53.566;9.980;2022-11-20T03:51:34;21.00;1.00
20463;DHT22;10390;53.566;9.980;2022-11-20T03:54:04;21.00;1.00
20463;DHT22;10390;53.566;9.980;2022-11-20T03:56:33;21.00;1.00
20463;DHT22;10390;53.566;9.980;2022-11-20T03:59:01;21.00;1.00
20463;DHT22;10390;53.566;9.980;2022-11-20T04:01:32;21.00;1.00
20463;DHT22;10390;53.566;9.980;2022-11-20T04:04:00;21.00;1.00
20463;DHT22;10390;53.566;9.980;2022-11-20T04:06:29;21.00;1.00
20463;DHT22;10390;53.566;9.980;2022-11-20T04:08:59;21.00;1.00
20463;DHT22;10390;53.566;9.980;2022-11-20T04:11:30;21.00;1.00
20463;DHT22;10390;53.566;9.980;2022-11-20T04:13:59;21.00;1.00
20463;DHT22;10390;53.566;9.980;2022-11-20T04:16:35;21.00;1.00
20463;DHT22;10390;53.566;9.980;2022-11-20T04:19:03;20.90;1.00
20463;DHT22;10390;53.566;9.980;2022-11-20T04:21:30;20.90;1.00
20463;DHT22;10390;53.566;9.980;2022-11-20T04:23:56;21.00;1.00
20463;DHT22;10390;53.566;9.980;2022-11-20T04:26:24;21.00;1.00
20463;DHT22;10390;53.566;9.980;2022-11-20T04:28:51;20.90;1.00
20463;DHT22;10390;53.566;9.980;2022-11-20T04:31:22;20.90;1.00
20463;DHT22;10390;53.566;9.980;2022-11-20T04:33:49;20.90;1.00
20463;DHT22;10390;53.566;9.980;2022-11-20T04:36:18;20.90;1.00
20463;DHT22;10390;53.566;9.980;2022-11-20T04:38:44;20.90;1.00
20463;DHT22;10390;53.566;9.980;2022-11-20T04:41:21;20.90;1.00
20463;DHT22;10390;53.566;9.980;2022-11-20T04:43:52;20.90;1.00
20463;DHT22;10390;53.566;9.980;2022-11-20T04:46:24;20.90;1.00
20463;DHT22;10390;53.566;9.980;2022-11-20T04:48:50;20.90;1.00
20463;DHT22;10390;53.566;9.980;2022-11-20T04:51:16;20.90;1.00
20463;DHT22;10390;53.566;9.980;2022-11-20T04:53:42;20.90;1.00
20463;DHT22;10390;53.566;9.980;2022-11-20T04:56:10;20.90;1.00
20463;DHT22;10390;53.566;9.980;2022-11-20T04:58:38;20.90;1.00
20463;DHT22;10390;53.566;9.980;2022-11-20T05:01:15;20.80;1.00
20463;DHT22;10390;53.566;9.980;2022-11-20T05:03:46;20.90;1.00
20463;DHT22;10390;53.566;9.980;2022-11-20T05:06:13;20.80;1.00
20463;DHT22;10390;53.566;9.980;2022-11-20T05:08:46;20.90;1.00
20463;DHT22;10390;53.566;9.980;2022-11-20T05:11:15;20.80;1.00
20463;DHT22;10390;53.566;9.980;2022-11-20T05:13:42;20.80;1.00
20463;DHT22;10390;53.566;9.980;2022-11-20T05:16:17;20.80;1.00
20463;DHT22;10390;53.566;9.980;2022-11-20T05:18:45;20.80;1.00
20463;DHT22;10390;53.566;9.980;2022-11-20T05:21:14;20.80;1.00
20463;DHT22;10390;53.566;9.980;2022-11-20T05:23:41;20.80;1.00
20463;DHT22;10390;53.566;9.980;2022-11-20T05:26:15;20.80;1.00
20463;DHT22;10390;53.566;9.980;2022-11-20T05:28:45;20.80;1.00
20463;DHT22;10390;53.566;9.980;2022-11-20T05:31:16;20.80;1.00
20463;DHT22;10390;53.566;9.980;2022-11-20T05:33:45;20.80;1.00
20463;DHT22;10390;53.566;9.980;2022-11-20T05:36:12;20.80;1.00
20463;DHT22;10390;53.566;9.980;2022-11-20T05:38:39;20.80;1.00
20463;DHT22;10390;53.566;9.980;2022-11-20T05:41:10;20.80;1.00
20463;DHT22;10390;53.566;9.980;2022-11-20T05:43:42;20.80;1.00
20463;DHT22;10390;53.566;9.980;2022-11-20T05:46:10;20.70;1.00
20463;DHT22;10390;53.566;9.980;2022-11-20T05:48:40;20.70;1.00
20463;DHT22;10390;53.566;9.980;2022-11-20T05:51:08;20.70;1.00
20463;DHT22;10390;53.566;9.980;2022-11-20T05:53:35;20.70;1.00
20463;DHT22;10390;53.566;9.980;2022-11-20T05:56:07;20.70;1.00
20463;DHT22;10390;53.566;9.980;2022-11-20T05:58:35;20.70;1.00
20463;DHT22;10390;53.566;9.980;2022-11-20T06:01:05;20.70;1.00
20463;DHT22;10390;53.566;9.980;2022-11-20T06:03:32;20.70;1.00
20463;DHT22;10390;53.566;9.980;2022-11-20T06:06:01;20.70;1.00
20463;DHT22;10390;53.566;9.980;2022-11-20T06:08:28;20.70;1.00
20463;DHT22;10390;53.566;9.980;2022-11-20T06:10:54;20.70;1.00
20463;DHT22;10390;53.566;9.980;2022-11-20T06:13:20;20.70;1.00
20463;DHT22;10390;53.566;9.980;2022-11-20T06:15:53;20.70;1.00
20463;DHT22;10390;53.566;9.980;2022-11-20T06:18:19;20.70;1.00
20463;DHT22;10390;53.566;9.980;2022-11-20T06:20:45;20.70;1.00
20463;DHT22;10390;53.566;9.980;2022-11-20T06:23:12;20.70;1.00
20463;DHT22;10390;53.566;9.980;2022-11-20T06:25:42;20.60;1.00
20463;DHT22;10390;53.566;9.980;2022-11-20T06:28:08;20.70;1.00
20463;DHT22;10390;53.566;9.980;2022-11-20T06:30:35;20.60;1.00
20463;DHT22;10390;53.566;9.980;2022-11-20T06:33:01;20.60;1.00
20463;DHT22;10390;53.566;9.980;2022-11-20T06:35:27;20.60;1.00
20463;DHT22;10390;53.566;9.980;2022-11-20T06:37:52;20.60;1.00
20463;DHT22;10390;53.566;9.980;2022-11-20T06:40:18;20.70;1.00
20463;DHT22;10390;53.566;9.980;2022-11-20T06:42:44;20.60;1.00
20463;DHT22;10390;53.566;9.980;2022-11-20T06:45:10;20.60;1.00
20463;DHT22;10390;53.566;9.980;2022-11-20T06:47:36;20.60;1.00
20463;DHT22;10390;53.566;9.980;2022-11-20T06:50:01;20.60;1.00
20463;DHT22;10390;53.566;9.980;2022-11-20T06:52:27;20.60;1.00
20463;DHT22;10390;53.566;9.980;2022-11-20T06:54:53;20.60;1.00
20463;DHT22;10390;53.566;9.980;2022-11-20T06:57:19;20.60;1.00
20463;DHT22;10390;53.566;9.980;2022-11-20T06:59:45;20.70;1.00
20463;DHT22;10390;53.566;9.980;2022-11-20T07:02:11;20.70;1.00
20463;DHT22;10390;53.566;9.980;2022-11-20T07:04:37;20.90;1.00
20463;DHT22;10390;53.566;9.980;2022-11-20T07:07:04;20.90;1.00
20463;DHT22;10390;53.566;9.980;2022-11-20T07:09:29;21.10;1.00
20463;DHT22;10390;53.566;9.980;2022-11-20T07:11:55;21.20;1.00
20463;DHT22;10390;53.566;9.980;2022-11-20T07:14:21;21.30;1.00
20463;DHT22;10390;53.566;9.980;2022-11-20T07:16:47;21.40;1.00
20463;DHT22;10390;53.566;9.980;2022-11-20T07:19:12;21.50;1.00
20463;DHT22;10390;53.566;9.980;2022-11-20T07:21:38;21.60;1.00
20463;DHT22;10390;53.566;9.980;2022-11-20T07:24:04;21.70;1.00
20463;DHT22;10390;53.566;9.980;2022-11-20T07:26:29;21.70;1.00
20463;DHT22;10390;53.566;9.980;2022-11-20T07:28:55;21.80;1.00
20463;DHT22;10390;53.566;9.980;2022-11-20T07:31:21;21.80;1.00
20463;DHT22;10390;53.566;9.980;2022-11-20T07:33:47;21.90;1.00
20463;DHT22;10390;53.566;9.980;2022-11-20T07:36:13;21.90;1.00
20463;DHT22;10390;53.566;9.980;2022-11-20T07:38:38;21.90;1.00
20463;DHT22;10390;53.566;9.980;2022-11-20T07:41:04;22.00;1.00
20463;DHT22;10390;53.566;9.980;2022-11-20T07:43:30;22.00;1.00
20463;DHT22;10390;53.566;9.980;2022-11-20T07:45:57;22.00;1.00
20463;DHT22;10390;53.566;9.980;2022-11-20T07:48:24;22.00;1.00
20463;DHT22;10390;53.566;9.980;2022-11-20T07:50:53;22.00;1.00
20463;DHT22;10390;53.566;9.980;2022-11-20T07:53:20;22.00;1.00
20463;DHT22;10390;53.566;9.980;2022-11-20T07:55:47;22.00;1.00
20463;DHT22;10390;53.566;9.980;2022-11-20T07:58:13;22.10;1.00
20463;DHT22;10390;53.566;9.980;2022-11-20T08:00:40;22.10;1.00
20463;DHT22;10390;53.566;9.980;2022-11-20T08:03:07;22.10;1.00
20463;DHT22;10390;53.566;9.980;2022-11-20T08:05:33;22.00;1.00
20463;DHT22;10390;53.566;9.980;2022-11-20T08:07:58;22.00;1.00
20463;DHT22;10390;53.566;9.980;2022-11-20T08:10:24;22.00;1.00
20463;DHT22;10390;53.566;9.980;2022-11-20T08:12:51;22.00;1.00
20463;DHT22;10390;53.566;9.980;2022-11-20T08:15:38;22.00;1.00
20463;DHT22;10390;53.566;9.980;2022-11-20T08:18:07;22.00;1.00
20463;DHT22;10390;53.566;9.980;2022-11-20T08:20:35;21.90;1.00
20463;DHT22;10390;53.566;9.980;2022-11-20T08:23:02;21.90;1.00
20463;DHT22;10390;53.566;9.980;2022-11-20T08:25:31;21.90;1.00
20463;DHT22;10390;53.566;9.980;2022-11-20T08:28:02;21.90;1.00
20463;DHT22;10390;53.566;9.980;2022-11-20T08:30:30;21.90;1.00
20463;DHT22;10390;53.566;9.980;2022-11-20T08:33:05;21.80;1.00
20463;DHT22;10390;53.566;9.980;2022-11-20T08:35:37;21.80;1.00
20463;DHT22;10390;53.566;9.980;2022-11-20T08:38:04;21.70;1.00
20463;DHT22;10390;53.566;9.980;2022-11-20T08:40:31;21.70;1.00
20463;DHT22;10390;53.566;9.980;2022-11-20T08:42:57;21.70;1.00
20463;DHT22;10390;53.566;9.980;2022-11-20T08:45:23;21.70;1.00
20463;DHT22;10390;53.566;9.980;2022-11-20T08:47:49;21.70;1.00
20463;DHT22;10390;53.566;9.980;2022-11-20T08:50:16;21.60;1.00
20463;DHT22;10390;53.566;9.980;2022-11-20T08:52:43;21.60;1.00
20463;DHT22;10390;53.566;9.980;2022-11-20T08:55:10;21.60;1.00
20463;DHT22;10390;53.566;9.980;2022-11-20T08:57:36;21.50;1.00
20463;DHT22;10390;53.566;9.980;2022-11-20T09:00:05;21.50;1.00
20463;DHT22;10390;53.566;9.980;2022-11-20T09:02:32;21.50;1.00
20463;DHT22;10390;53.566;9.980;2022-11-20T09:04:58;21.50;1.00
20463;DHT22;10390;53.566;9.980;2022-11-20T09:07:24;21.50;1.00
20463;DHT22;10390;53.566;9.980;2022-11-20T09:09:49;21.40;1.00
20463;DHT22;10390;53.566;9.980;2022-11-20T09:12:15;21.40;1.00
20463;DHT22;10390;53.566;9.980;2022-11-20T09:14:41;21.40;1.00
20463;DHT22;10390;53.566;9.980;2022-11-20T09:17:07;21.40;1.00
20463;DHT22;10390;53.566;9.980;2022-11-20T09:19:33;21.40;1.00
20463;DHT22;10390;53.566;9.980;2022-11-20T09:22:00;21.40;1.00
20463;DHT22;10390;53.566;9.980;2022-11-20T09:24:27;21.30;1.00
20463;DHT22;10390;53.566;9.980;2022-11-20T09:26:53;21.30;1.00
20463;DHT22;10390;53.566;9.980;2022-11-20T09:29:19;21.30;1.00
20463;DHT22;10390;53.566;9.980;2022-11-20T09:31:44;21.30;1.00
20463;DHT22;10390;53.566;9.980;2022-11-20T09:34:10;21.30;1.00
20463;DHT22;10390;53.566;9.980;2022-11-20T09:36:36;21.30;1.00
20463;DHT22;10390;53.566;9.980;2022-11-20T09:39:02;21.20;1.00
20463;DHT22;10390;53.566;9.980;2022-11-20T09:47:45;21.20;1.00
20463;DHT22;10390;53.566;9.980;2022-11-20T09:56:11;21.10;1.00
20463;DHT22;10390;53.566;9.980;2022-11-20T09:58:49;21.10;1.00
20463;DHT22;10390;53.566;9.980;2022-11-20T10:01:19;21.10;1.00
20463;DHT22;10390;53.566;9.980;2022-11-20T10:06:39;21.10;1.00
20463;DHT22;10390;53.566;9.980;2022-11-20T10:14:52;21.00;1.00
20463;DHT22;10390;53.566;9.980;2022-11-20T10:20:32;21.00;1.00
20463;DHT22;10390;53.566;9.980;2022-11-20T10:29:12;21.00;1.00
20463;DHT22;10390;53.566;9.980;2022-11-20T10:32:00;20.90;1.00
20463;DHT22;10390;53.566;9.980;2022-11-20T10:37:25;20.90;1.00
20463;DHT22;10390;53.566;9.980;2022-11-20T10:40:05;20.90;1.00
20463;DHT22;10390;53.566;9.980;2022-11-20T10:42:56;20.90;1.00
20463;DHT22;10390;53.566;9.980;2022-11-20T10:45:53;20.90;1.00
20463;DHT22;10390;53.566;9.980;2022-11-20T10:48:25;20.90;1.00
20463;DHT22;10390;53.566;9.980;2022-11-20T10:51:03;20.90;1.00
20463;DHT22;10390;53.566;9.980;2022-11-20T10:56:46;20.90;1.00
20463;DHT22;10390;53.566;9.980;2022-11-20T11:02:01;20.90;1.00
20463;DHT22;10390;53.566;9.980;2022-11-20T11:04:38;20.90;1.00
20463;DHT22;10390;53.566;9.980;2022-11-20T11:09:52;20.90;1.00
20463;DHT22;10390;53.566;9.980;2022-11-20T11:12:20;20.80;1.00
20463;DHT22;10390;53.566;9.980;2022-11-20T11:14:52;20.80;1.00
20463;DHT22;10390;53.566;9.980;2022-11-20T11:17:25;20.80;1.00
20463;DHT22;10390;53.566;9.980;2022-11-20T11:20:05;20.80;1.00
20463;DHT22;10390;53.566;9.980;2022-11-20T11:22:55;20.80;1.00
20463;DHT22;10390;53.566;9.980;2022-11-20T11:25:35;20.80;1.00
20463;DHT22;10390;53.566;9.980;2022-11-20T11:28:20;20.80;1.00
20463;DHT22;10390;53.566;9.980;2022-11-20T11:30:48;20.80;1.00
20463;DHT22;10390;53.566;9.980;2022-11-20T11:33:21;20.80;1.00
20463;DHT22;10390;53.566;9.980;2022-11-20T11:36:03;20.80;1.00
20463;DHT22;10390;53.566;9.980;2022-11-20T11:41:12;20.80;1.00
20463;DHT22;10390;53.566;9.980;2022-11-20T11:43:54;20.70;1.00
20463;DHT22;10390;53.566;9.980;2022-11-20T11:46:49;20.70;1.00
20463;DHT22;10390;53.566;9.980;2022-11-20T11:49:19;20.80;1.00
20463;DHT22;10390;53.566;9.980;2022-11-20T11:52:17;20.70;1.00
20463;DHT22;10390;53.566;9.980;2022-11-20T11:54:49;20.70;1.00
20463;DHT22;10390;53.566;9.980;2022-11-20T11:57:53;20.70;1.00
20463;DHT22;10390;53.566;9.980;2022-11-20T12:00:22;20.70;1.00
20463;DHT22;10390;53.566;9.980;2022-11-20T12:03:02;20.70;1.00
20463;DHT22;10390;53.566;9.980;2022-11-20T12:05:43;20.70;1.00
20463;DHT22;10390;53.566;9.980;2022-11-20T12:11:40;20.70;1.00
20463;DHT22;10390;53.566;9.980;2022-11-20T12:14:17;20.70;1.00
20463;DHT22;10390;53.566;9.980;2022-11-20T12:16:50;20.60;1.00
20463;DHT22;10390;53.566;9.980;2022-11-20T12:19:16;20.60;1.00
20463;DHT22;10390;53.566;9.980;2022-11-20T12:21:54;20.60;1.00
20463;DHT22;10390;53.566;9.980;2022-11-20T12:30:24;20.60;1.00
20463;DHT22;10390;53.566;9.980;2022-11-20T12:33:03;20.60;1.00
20463;DHT22;10390;53.566;9.980;2022-11-20T12:38:50;20.60;1.00
20463;DHT22;10390;53.566;9.980;2022-11-20T12:56:48;20.50;1.00
20463;DHT22;10390;53.566;9.980;2022-11-20T12:59:47;20.50;1.00
20463;DHT22;10390;53.566;9.980;2022-11-20T13:05:59;20.50;1.00
20463;DHT22;10390;53.566;9.980;2022-11-20T13:08:40;20.50;1.00
20463;DHT22;10390;53.566;9.980;2022-11-20T13:17:05;20.40;1.00
20463;DHT22;10390;53.566;9.980;2022-11-20T13:19:37;20.50;1.00
20463;DHT22;10390;53.566;9.980;2022-11-20T13:22:04;20.50;1.00
20463;DHT22;10390;53.566;9.980;2022-11-20T13:24:31;20.40;1.00
20463;DHT22;10390;53.566;9.980;2022-11-20T13:29:45;20.50;1.00
20463;DHT22;10390;53.566;9.980;2022-11-20T13:32:16;20.40;1.00
20463;DHT22;10390;53.566;9.980;2022-11-20T13:35:00;20.40;1.00
20463;DHT22;10390;53.566;9.980;2022-11-20T13:37:35;20.40;1.00
20463;DHT22;10390;53.566;9.980;2022-11-20T13:42:46;20.40;1.00
20463;DHT22;10390;53.566;9.980;2022-11-20T13:45:24;20.50;1.00
20463;DHT22;10390;53.566;9.980;2022-11-20T13:47:53;20.50;1.00
20463;DHT22;10390;53.566;9.980;2022-11-20T13:50:27;20.50;1.00
20463;DHT22;10390;53.566;9.980;2022-11-20T13:53:31;20.50;1.00
20463;DHT22;10390;53.566;9.980;2022-11-20T13:56:40;20.50;1.00
20463;DHT22;10390;53.566;9.980;2022-11-20T13:59:58;20.50;1.00
20463;DHT22;10390;53.566;9.980;2022-11-20T14:02:33;20.50;1.00
20463;DHT22;10390;53.566;9.980;2022-11-20T14:04:59;20.40;1.00
20463;DHT22;10390;53.566;9.980;2022-11-20T14:07:35;20.50;1.00
20463;DHT22;10390;53.566;9.980;2022-11-20T14:10:04;20.50;1.00
20463;DHT22;10390;53.566;9.980;2022-11-20T14:12:32;20.50;1.00
20463;DHT22;10390;53.566;9.980;2022-11-20T14:14:59;20.60;1.00
20463;DHT22;10390;53.566;9.980;2022-11-20T14:17:32;20.60;1.00
20463;DHT22;10390;53.566;9.980;2022-11-20T14:20:05;20.70;1.00
20463;DHT22;10390;53.566;9.980;2022-11-20T14:22:32;20.70;1.00
20463;DHT22;10390;53.566;9.980;2022-11-20T14:25:18;20.70;1.00
20463;DHT22;10390;53.566;9.980;2022-11-20T14:27:52;20.70;1.00
20463;DHT22;10390;53.566;9.980;2022-11-20T14:30:25;20.70;1.00
20463;DHT22;10390;53.566;9.980;2022-11-20T14:33:12;20.70;1.00
20463;DHT22;10390;53.566;9.980;2022-11-20T14:35:51;20.70;1.00
20463;DHT22;10390;53.566;9.980;2022-11-20T14:38:27;20.70;1.00
20463;DHT22;10390;53.566;9.980;2022-11-20T14:40:53;20.70;1.00
20463;DHT22;10390;53.566;9.980;2022-11-20T14:43:24;20.70;1.00
20463;DHT22;10390;53.566;9.980;2022-11-20T14:46:00;20.70;1.00
20463;DHT22;10390;53.566;9.980;2022-11-20T14:48:44;20.70;1.00
20463;DHT22;10390;53.566;9.980;2022-11-20T14:51:39;20.70;1.00
20463;DHT22;10390;53.566;9.980;2022-11-20T14:56:36;20.70;1.00
20463;DHT22;10390;53.566;9.980;2022-11-20T14:59:02;20.70;1.00
20463;DHT22;10390;53.566;9.980;2022-11-20T15:01:30;20.70;1.00
20463;DHT22;10390;53.566;9.980;2022-11-20T15:04:10;20.70;1.00
20463;DHT22;10390;53.566;9.980;2022-11-20T15:06:51;20.70;1.00
20463;DHT22;10390;53.566;9.980;2022-11-20T15:09:19;20.70;1.00
20463;DHT22;10390;53.566;9.980;2022-11-20T15:12:15;20.60;1.00
20463;DHT22;10390;53.566;9.980;2022-11-20T15:14:50;20.60;1.00
20463;DHT22;10390;53.566;9.980;2022-11-20T15:17:15;20.70;1.00
20463;DHT22;10390;53.566;9.980;2022-11-20T15:19:41;20.70;1.00
20463;DHT22;10390;53.566;9.980;2022-11-20T15:22:12;20.60;1.00
20463;DHT22;10390;53.566;9.980;2022-11-20T15:24:44;20.60;1.00
20463;DHT22;10390;53.566;9.980;2022-11-20T15:27:10;20.60;1.00
20463;DHT22;10390;53.566;9.980;2022-11-20T15:29:36;20.60;1.00
20463;DHT22;10390;53.566;9.980;2022-11-20T15:32:02;20.60;1.00
20463;DHT22;10390;53.566;9.980;2022-11-20T15:34:28;20.60;1.00
20463;DHT22;10390;53.566;9.980;2022-11-20T15:36:54;20.60;1.00
20463;DHT22;10390;53.566;9.980;2022-11-20T15:39:20;20.60;1.00
20463;DHT22;10390;53.566;9.980;2022-11-20T15:41:46;20.60;1.00
20463;DHT22;10390;53.566;9.980;2022-11-20T15:44:12;20.60;1.00
20463;DHT22;10390;53.566;9.980;2022-11-20T15:46:41;20.50;1.00
20463;DHT22;10390;53.566;9.980;2022-11-20T15:49:16;20.60;1.00
20463;DHT22;10390;53.566;9.980;2022-11-20T15:51:46;20.60;1.00
20463;DHT22;10390;53.566;9.980;2022-11-20T15:54:18;20.50;1.00
20463;DHT22;10390;53.566;9.980;2022-11-20T15:56:49;20.60;1.00
20463;DHT22;10390;53.566;9.980;2022-11-20T15:59:17;20.50;1.00
20463;DHT22;10390;53.566;9.980;2022-11-20T16:01:44;20.50;1.00
20463;DHT22;10390;53.566;9.980;2022-11-20T16:04:13;20.50;1.00
20463;DHT22;10390;53.566;9.980;2022-11-20T16:06:40;20.50;1.00
20463;DHT22;10390;53.566;9.980;2022-11-20T16:09:06;20.50;1.00
20463;DHT22;10390;53.566;9.980;2022-11-20T16:11:33;20.50;1.00
20463;DHT22;10390;53.566;9.980;2022-11-20T16:14:02;20.50;1.00
20463;DHT22;10390;53.566;9.980;2022-11-20T16:16:47;20.50;1.00
20463;DHT22;10390;53.566;9.980;2022-11-20T16:19:13;20.50;1.00
20463;DHT22;10390;53.566;9.980;2022-11-20T16:21:40;20.50;1.00
20463;DHT22;10390;53.566;9.980;2022-11-20T16:24:11;20.50;1.00
20463;DHT22;10390;53.566;9.980;2022-11-20T16:26:38;20.50;1.00
20463;DHT22;10390;53.566;9.980;2022-11-20T16:29:05;20.50;1.00
20463;DHT22;10390;53.566;9.980;2022-11-20T16:31:32;20.50;1.00
20463;DHT22;10390;53.566;9.980;2022-11-20T16:34:06;20.50;1.00
20463;DHT22;10390;53.566;9.980;2022-11-20T16:36:32;20.50;1.00
20463;DHT22;10390;53.566;9.980;2022-11-20T16:39:00;20.50;1.00
20463;DHT22;10390;53.566;9.980;2022-11-20T16:41:30;20.60;1.00
20463;DHT22;10390;53.566;9.980;2022-11-20T16:43:59;20.60;1.00
20463;DHT22;10390;53.566;9.980;2022-11-20T16:46:30;20.60;1.00
20463;DHT22;10390;53.566;9.980;2022-11-20T16:49:04;20.60;1.00
20463;DHT22;10390;53.566;9.980;2022-11-20T16:51:34;20.70;1.00
20463;DHT22;10390;53.566;9.980;2022-11-20T16:54:04;20.70;1.00
20463;DHT22;10390;53.566;9.980;2022-11-20T16:56:31;20.70;1.00
20463;DHT22;10390;53.566;9.980;2022-11-20T16:58:58;20.70;1.00
20463;DHT22;10390;53.566;9.980;2022-11-20T17:01:26;20.80;1.00
20463;DHT22;10390;53.566;9.980;2022-11-20T17:04:03;20.80;1.00
20463;DHT22;10390;53.566;9.980;2022-11-20T17:06:33;20.80;1.00
20463;DHT22;10390;53.566;9.980;2022-11-20T17:09:00;20.80;1.00
20463;DHT22;10390;53.566;9.980;2022-11-20T17:11:26;20.80;1.00
20463;DHT22;10390;53.566;9.980;2022-11-20T17:13:54;20.80;1.00
20463;DHT22;10390;53.566;9.980;2022-11-20T17:16:22;20.80;1.00
20463;DHT22;10390;53.566;9.980;2022-11-20T17:18:48;20.80;1.00
20463;DHT22;10390;53.566;9.980;2022-11-20T17:21:15;20.80;1.00
20463;DHT22;10390;53.566;9.980;2022-11-20T17:23:43;20.80;1.00
20463;DHT22;10390;53.566;9.980;2022-11-20T17:26:13;20.80;1.00
20463;DHT22;10390;53.566;9.980;2022-11-20T17:28:43;20.80;1.00
20463;DHT22;10390;53.566;9.980;2022-11-20T17:31:12;20.80;1.00
20463;DHT22;10390;53.566;9.980;2022-11-20T17:33:42;20.80;1.00
20463;DHT22;10390;53.566;9.980;2022-11-20T17:36:10;20.70;1.00